createdAt,value
2022-10-21T00:01:49.761Z,7.47
2022-10-21T00:04:16.282Z,6.95
2022-10-21T00:06:42.900Z,7.07
2022-10-21T00:09:09.534Z,6.65
2022-10-21T00:11:36.140Z,8.07
2022-10-21T00:14:03.045Z,7.32
2022-10-21T00:16:29.679Z,7.40
2022-10-21T00:18:56.238Z,7.22
2022-10-21T00:21:23.288Z,7.13
2022-10-21T00:23:50.277Z,7.85
2022-10-21T00:26:18.044Z,8.20
2022-10-21T00:28:44.803Z,7.72
2022-10-21T00:31:13.108Z,7.78
2022-10-21T00:33:39.975Z,8.15
2022-10-21T00:36:14.545Z,7.82
2022-10-21T00:38:43.562Z,8.63
2022-10-21T00:41:10.457Z,8.32
2022-10-21T00:43:58.684Z,8.48
2022-10-21T00:46:40.040Z,9.32
2022-10-21T00:49:14.401Z,8.23
2022-10-21T00:51:41.954Z,8.10
2022-10-21T00:54:09.746Z,8.45
2022-10-21T00:56:36.714Z,8.20
2022-10-21T00:59:05.535Z,8.50
2022-10-21T01:01:32.415Z,8.07
2022-10-21T01:04:01.278Z,9.30
2022-10-21T01:06:28.828Z,9.30
2022-10-21T01:08:57.059Z,8.55
2022-10-21T01:11:25.662Z,9.23
2022-10-21T01:14:13.089Z,9.00
2022-10-21T01:16:50.407Z,9.23
2022-10-21T01:19:53.465Z,8.88
2022-10-21T01:22:44.444Z,8.63
2022-10-21T01:25:45.221Z,9.32
2022-10-21T01:28:29.639Z,8.85
2022-10-21T01:31:00.374Z,8.80
2022-10-21T01:33:38.205Z,9.05
2022-10-21T01:36:13.291Z,8.82
2022-10-21T01:38:54.603Z,7.88
2022-10-21T01:41:28.627Z,8.57
2022-10-21T01:44:13.786Z,9.15
2022-10-21T01:46:51.504Z,8.43
2022-10-21T01:49:31.639Z,8.35
2022-10-21T01:52:00.560Z,8.82
2022-10-21T01:54:32.479Z,8.95
2022-10-21T01:57:00.957Z,8.98
2022-10-21T01:59:30.639Z,8.73
2022-10-21T02:02:00.175Z,9.20
2022-10-21T02:04:28.967Z,8.95
2022-10-21T02:06:55.576Z,8.30
2022-10-21T02:09:22.244Z,8.73
2022-10-21T02:11:51.830Z,8.23
2022-10-21T02:14:45.078Z,8.88
2022-10-21T02:17:15.137Z,7.93
2022-10-21T02:19:42.020Z,7.88
2022-10-21T02:22:11.984Z,8.43
2022-10-21T02:24:42.381Z,8.63
2022-10-21T02:27:08.970Z,7.90
2022-10-21T02:29:40.112Z,7.88
2022-10-21T02:32:20.476Z,8.52
2022-10-21T02:35:08.941Z,8.57
2022-10-21T02:38:04.681Z,8.32
2022-10-21T02:40:43.209Z,7.80
2022-10-21T02:43:15.518Z,8.13
2022-10-21T02:45:42.280Z,8.15
2022-10-21T02:48:08.769Z,7.93
2022-10-21T02:50:35.384Z,8.23
2022-10-21T02:53:02.118Z,8.82
2022-10-21T02:55:28.636Z,8.57
2022-10-21T02:57:55.147Z,8.45
2022-10-21T03:00:21.736Z,8.23
2022-10-21T03:02:48.394Z,9.20
2022-10-21T03:05:15.086Z,8.50
2022-10-21T03:07:41.802Z,9.70
2022-10-21T03:10:08.723Z,9.48
2022-10-21T03:12:35.264Z,9.55
2022-10-21T03:15:01.889Z,9.18
2022-10-21T03:17:28.378Z,9.27
2022-10-21T03:19:54.945Z,9.50
2022-10-21T03:22:21.551Z,8.82
2022-10-21T03:24:48.092Z,9.40
2022-10-21T03:27:14.661Z,8.50
2022-10-21T03:29:41.154Z,9.15
2022-10-21T03:32:07.698Z,8.25
2022-10-21T03:34:34.254Z,9.77
2022-10-21T03:37:00.809Z,10.07
2022-10-21T03:39:27.401Z,8.82
2022-10-21T03:41:53.962Z,8.57
2022-10-21T03:44:20.470Z,10.02
2022-10-21T03:46:47.059Z,9.30
2022-10-21T03:49:19.984Z,9.15
2022-10-21T03:54:14.686Z,9.95
2022-10-21T03:56:41.250Z,9.32
2022-10-21T03:59:07.752Z,8.98
2022-10-21T04:01:34.370Z,9.60
2022-10-21T04:04:01.003Z,9.13
2022-10-21T04:06:27.572Z,9.80
2022-10-21T04:08:54.368Z,9.15
2022-10-21T04:11:20.974Z,9.70
2022-10-21T04:13:47.466Z,9.85
2022-10-21T04:16:17.550Z,11.07
2022-10-21T04:18:44.113Z,11.07
2022-10-21T04:21:11.183Z,10.30
2022-10-21T04:23:38.101Z,9.93
2022-10-21T04:26:05.551Z,9.77
2022-10-21T04:28:32.911Z,9.90
2022-10-21T04:30:59.477Z,10.52
2022-10-21T04:33:26.560Z,11.20
2022-10-21T04:35:58.827Z,9.50
2022-10-21T04:38:25.654Z,10.75
2022-10-21T04:40:59.817Z,10.45
2022-10-21T04:45:54.165Z,10.90
2022-10-21T04:48:21.801Z,11.00
2022-10-21T04:50:52.799Z,11.35
2022-10-21T04:53:19.757Z,10.50
2022-10-21T04:55:53.003Z,10.73
2022-10-21T04:58:22.064Z,11.02
2022-10-21T05:00:50.438Z,10.23
2022-10-21T05:03:17.456Z,11.27
2022-10-21T05:05:44.118Z,10.88
2022-10-21T05:08:11.755Z,10.18
2022-10-21T05:10:38.595Z,11.35
2022-10-21T05:13:06.110Z,10.90
2022-10-21T05:15:33.681Z,11.40
2022-10-21T05:18:00.387Z,9.93
2022-10-21T05:20:26.954Z,10.98
2022-10-21T05:22:53.766Z,10.98
2022-10-21T05:25:20.871Z,10.75
2022-10-21T05:27:47.631Z,9.93
2022-10-21T05:30:14.366Z,10.40
2022-10-21T05:32:41.848Z,9.90
2022-10-21T05:35:08.790Z,10.65
2022-10-21T05:37:35.305Z,9.93
2022-10-21T05:40:02.122Z,10.52
2022-10-21T05:42:28.713Z,11.75
2022-10-21T05:44:55.239Z,11.65
2022-10-21T05:47:23.762Z,11.05
2022-10-21T05:49:50.769Z,12.10
2022-10-21T05:52:17.426Z,11.73
2022-10-21T05:54:44.021Z,12.10
2022-10-21T05:57:10.532Z,11.82
2022-10-21T05:59:37.081Z,11.23
2022-10-21T06:02:03.611Z,11.45
2022-10-21T06:04:31.337Z,11.20
2022-10-21T06:06:59.387Z,11.35
2022-10-21T06:09:26.000Z,11.60
2022-10-21T06:11:52.634Z,11.18
2022-10-21T06:14:20.381Z,11.63
2022-10-21T06:16:46.922Z,11.90
2022-10-21T06:19:13.534Z,11.60
2022-10-21T06:21:40.031Z,10.60
2022-10-21T06:24:06.544Z,12.07
2022-10-21T06:26:36.048Z,12.52
2022-10-21T06:29:03.833Z,11.32
2022-10-21T06:31:30.509Z,12.30
2022-10-21T06:33:57.161Z,12.00
2022-10-21T06:36:23.735Z,11.82
2022-10-21T06:38:50.282Z,11.85
2022-10-21T06:41:18.063Z,11.23
2022-10-21T06:43:44.698Z,11.55
2022-10-21T06:46:14.392Z,11.93
2022-10-21T06:48:41.503Z,11.18
2022-10-21T06:51:11.930Z,12.00
2022-10-21T06:53:39.413Z,11.95
2022-10-21T06:56:11.788Z,11.68
2022-10-21T06:58:43.149Z,11.55
2022-10-21T07:01:27.261Z,12.25
2022-10-21T07:03:59.032Z,11.88
2022-10-21T07:06:25.728Z,12.80
2022-10-21T07:08:59.533Z,12.48
2022-10-21T07:11:27.545Z,13.32
2022-10-21T07:13:54.113Z,12.80
2022-10-21T07:16:29.795Z,13.05
2022-10-21T07:18:56.668Z,13.52
2022-10-21T07:21:25.957Z,13.18
2022-10-21T07:23:56.490Z,14.10
2022-10-21T07:26:27.207Z,14.38
2022-10-21T07:28:55.498Z,14.55
2022-10-21T07:31:22.045Z,13.50
2022-10-21T07:33:49.154Z,13.65
2022-10-21T07:36:19.997Z,13.73
2022-10-21T07:38:48.067Z,13.15
2022-10-21T07:41:26.949Z,13.10
2022-10-21T07:43:54.272Z,13.45
2022-10-21T07:46:21.873Z,13.85
2022-10-21T07:48:49.002Z,13.85
2022-10-21T07:51:19.250Z,14.15
2022-10-21T07:53:45.986Z,14.25
2022-10-21T07:56:16.698Z,13.65
2022-10-21T07:58:43.899Z,13.50
2022-10-21T08:01:11.249Z,14.60
2022-10-21T08:03:38.870Z,13.65
2022-10-21T08:06:06.776Z,14.02
2022-10-21T08:08:34.120Z,15.93
2022-10-21T08:11:01.535Z,12.40
2022-10-21T08:13:28.318Z,13.68
2022-10-21T08:15:56.812Z,12.65
2022-10-21T08:18:24.482Z,13.20
2022-10-21T08:20:50.904Z,12.27
2022-10-21T08:23:20.298Z,12.45
2022-10-21T08:25:55.846Z,12.98
2022-10-21T08:28:24.938Z,11.68
2022-10-21T08:30:51.721Z,13.05
2022-10-21T08:33:18.238Z,13.05
2022-10-21T08:35:44.975Z,14.02
2022-10-21T08:38:11.794Z,13.07
2022-10-21T08:40:41.541Z,14.00
2022-10-21T08:43:10.264Z,13.75
2022-10-21T08:45:48.337Z,14.05
2022-10-21T08:48:21.894Z,13.43
2022-10-21T08:50:50.811Z,13.48
2022-10-21T08:53:35.161Z,13.98
2022-10-21T08:56:06.429Z,13.38
2022-10-21T08:58:32.971Z,13.07
2022-10-21T09:01:12.386Z,13.10
2022-10-21T09:03:47.036Z,12.32
2022-10-21T09:06:21.325Z,13.00
2022-10-21T09:09:12.094Z,13.10
2022-10-21T09:11:41.526Z,14.55
2022-10-21T09:14:27.458Z,13.15
2022-10-21T09:17:21.745Z,14.10
2022-10-21T09:20:01.734Z,13.98
2022-10-21T09:23:03.886Z,14.15
2022-10-21T09:25:30.219Z,14.52
2022-10-21T09:27:57.306Z,14.35
2022-10-21T09:30:24.941Z,13.05
2022-10-21T09:32:56.898Z,13.23
2022-10-21T09:35:36.334Z,13.85
2022-10-21T09:38:29.082Z,12.80
2022-10-21T09:41:03.595Z,13.63
2022-10-21T09:43:30.710Z,13.50
2022-10-21T09:45:57.974Z,13.68
2022-10-21T09:51:40.111Z,13.73
2022-10-21T09:54:11.623Z,14.25
2022-10-21T09:56:46.601Z,12.38
2022-10-21T09:59:14.901Z,12.85
2022-10-21T10:01:43.410Z,12.77
2022-10-21T10:04:21.023Z,13.02
2022-10-21T10:06:47.665Z,13.57
2022-10-21T10:09:25.504Z,12.88
2022-10-21T10:12:00.365Z,12.30
2022-10-21T10:14:31.463Z,13.65
2022-10-21T10:17:18.471Z,12.63
2022-10-21T10:20:04.948Z,12.27
2022-10-21T10:22:38.176Z,12.73
2022-10-21T10:25:22.733Z,11.93
2022-10-21T10:27:53.759Z,13.25
2022-10-21T10:30:22.560Z,13.07
2022-10-21T10:32:52.226Z,13.48
2022-10-21T10:35:30.840Z,13.23
2022-10-21T10:37:59.085Z,13.18
2022-10-21T10:40:42.135Z,12.70
2022-10-21T10:43:26.558Z,12.32
2022-10-21T10:48:38.543Z,12.68
2022-10-21T10:51:23.125Z,11.77
2022-10-21T10:54:17.777Z,10.73
2022-10-21T10:56:55.962Z,12.13
2022-10-21T10:59:40.706Z,11.82
2022-10-21T11:02:10.111Z,10.80
2022-10-21T11:04:45.930Z,10.88
2022-10-21T11:07:25.614Z,12.45
2022-10-21T11:09:56.725Z,11.90
2022-10-21T11:12:26.452Z,11.52
2022-10-21T11:14:58.439Z,11.43
2022-10-21T11:18:00.513Z,11.60
2022-10-21T11:20:42.520Z,11.35
2022-10-21T11:23:39.831Z,11.30
2022-10-21T11:26:19.618Z,10.95
2022-10-21T11:29:01.376Z,11.73
2022-10-21T11:32:09.697Z,10.68
2022-10-21T11:35:00.986Z,10.77
2022-10-21T11:37:46.408Z,10.85
2022-10-21T11:40:33.417Z,11.07
2022-10-21T11:43:28.470Z,11.23
2022-10-21T11:45:58.456Z,10.60
2022-10-21T11:48:41.703Z,10.85
2022-10-21T11:51:24.604Z,10.07
2022-10-21T11:54:24.842Z,10.23
2022-10-21T11:57:04.293Z,10.60
2022-10-21T11:59:53.197Z,10.43
2022-10-21T12:02:30.191Z,10.00
2022-10-21T12:05:06.059Z,9.80
2022-10-21T12:07:43.398Z,10.07
2022-10-21T12:10:27.267Z,9.52
2022-10-21T12:12:57.378Z,9.43
2022-10-21T12:15:43.351Z,9.20
2022-10-21T12:18:15.882Z,9.45
2022-10-21T12:20:45.196Z,9.30
2022-10-21T12:23:15.674Z,10.13
2022-10-21T12:26:00.396Z,9.23
2022-10-21T12:28:36.363Z,8.98
2022-10-21T12:31:33.819Z,8.73
2022-10-21T12:34:02.383Z,9.50
2022-10-21T12:36:44.402Z,9.40
2022-10-21T12:39:18.668Z,8.55
2022-10-21T12:41:47.663Z,8.77
2022-10-21T12:44:22.393Z,9.10
2022-10-21T12:46:52.723Z,8.70
2022-10-21T12:49:19.186Z,9.52
2022-10-21T12:51:57.123Z,8.73
2022-10-21T12:54:30.406Z,9.23
2022-10-21T12:57:06.437Z,8.43
2022-10-21T12:59:36.425Z,8.40
2022-10-21T13:02:05.908Z,8.05
2022-10-21T13:04:32.236Z,8.93
2022-10-21T13:07:17.005Z,8.05
2022-10-21T13:10:05.973Z,8.05
2022-10-21T13:12:33.436Z,8.80
2022-10-21T13:15:22.470Z,8.82
2022-10-21T13:17:57.621Z,9.15
2022-10-21T13:20:24.133Z,9.05
2022-10-21T13:23:01.888Z,9.32
2022-10-21T13:25:32.572Z,9.32
2022-10-21T13:28:14.215Z,9.32
2022-10-21T13:30:58.440Z,8.70
2022-10-21T13:33:27.726Z,8.75
2022-10-21T13:36:01.359Z,8.73
2022-10-21T13:38:33.955Z,8.88
2022-10-21T13:41:07.295Z,8.13
2022-10-21T13:43:40.026Z,8.50
2022-10-21T13:46:31.074Z,8.05
2022-10-21T13:49:00.742Z,8.98
2022-10-21T13:51:41.036Z,8.38
2022-10-21T13:54:13.225Z,8.50
2022-10-21T13:56:40.667Z,8.68
2022-10-21T13:59:21.225Z,8.07
2022-10-21T14:01:53.068Z,8.52
2022-10-21T14:04:25.809Z,8.07
2022-10-21T14:06:58.497Z,8.60
2022-10-21T14:09:32.897Z,7.90
2022-10-21T14:12:04.287Z,8.00
2022-10-21T14:14:33.331Z,8.05
2022-10-21T14:17:02.619Z,8.48
2022-10-21T14:19:32.590Z,8.73
2022-10-21T14:22:01.171Z,8.05
2022-10-21T14:24:37.585Z,8.10
2022-10-21T14:27:05.074Z,7.95
2022-10-21T14:29:33.867Z,8.90
2022-10-21T14:32:01.379Z,7.93
2022-10-21T14:34:33.493Z,8.45
2022-10-21T14:37:11.156Z,7.28
2022-10-21T14:39:39.467Z,7.85
2022-10-21T14:42:12.043Z,7.88
2022-10-21T14:44:41.426Z,7.88
2022-10-21T14:47:17.798Z,7.30
2022-10-21T14:49:49.650Z,7.80
2022-10-21T14:52:22.004Z,7.80
2022-10-21T14:54:57.409Z,7.88
2022-10-21T14:57:42.517Z,7.30
2022-10-21T15:00:20.123Z,8.02
2022-10-21T15:02:46.754Z,7.45
2022-10-21T15:05:38.568Z,8.07
2022-10-21T15:08:28.792Z,7.63
2022-10-21T15:10:58.623Z,9.30
2022-10-21T15:13:26.812Z,7.55
2022-10-21T15:15:57.469Z,7.75
2022-10-21T15:18:34.063Z,7.90
2022-10-21T15:21:03.197Z,7.03
2022-10-21T15:23:34.199Z,7.85
2022-10-21T15:26:05.737Z,7.68
2022-10-21T15:28:34.234Z,7.88
2022-10-21T15:31:02.588Z,7.60
2022-10-21T15:33:29.756Z,6.95
2022-10-21T15:36:04.673Z,7.43
2022-10-21T15:38:31.172Z,6.50
2022-10-21T15:40:57.948Z,7.38
2022-10-21T15:43:25.245Z,7.03
2022-10-21T15:45:51.822Z,6.85
2022-10-21T15:48:18.234Z,8.52
2022-10-21T15:50:44.748Z,7.97
2022-10-21T15:53:11.561Z,7.88
2022-10-21T15:55:38.647Z,9.50
2022-10-21T15:58:06.076Z,8.77
2022-10-21T16:00:38.527Z,8.90
2022-10-21T16:03:07.577Z,8.95
2022-10-21T16:05:34.273Z,8.80
2022-10-21T16:08:00.833Z,8.95
2022-10-21T16:10:31.142Z,8.43
2022-10-21T16:12:58.046Z,8.75
2022-10-21T16:15:25.174Z,7.93
2022-10-21T16:17:54.632Z,8.20
2022-10-21T16:20:29.155Z,8.05
2022-10-21T16:22:59.228Z,8.10
2022-10-21T16:25:28.647Z,8.00
2022-10-21T16:27:56.543Z,8.27
2022-10-21T16:30:32.273Z,7.68
2022-10-21T16:32:58.757Z,7.60
2022-10-21T16:35:26.219Z,8.10
2022-10-21T16:37:52.799Z,7.55
2022-10-21T16:40:35.295Z,7.75
2022-10-21T16:43:01.830Z,8.10
2022-10-21T16:45:30.551Z,7.80
2022-10-21T16:47:59.978Z,7.45
2022-10-21T16:50:40.828Z,7.93
2022-10-21T16:53:16.899Z,7.38
2022-10-21T16:55:43.756Z,7.88
2022-10-21T16:58:10.146Z,7.88
2022-10-21T17:00:36.608Z,8.02
2022-10-21T17:03:03.740Z,8.48
2022-10-21T17:05:30.388Z,7.60
2022-10-21T17:07:58.466Z,7.75
2022-10-21T17:10:24.856Z,7.32
2022-10-21T17:12:56.991Z,7.18
2022-10-21T17:15:23.422Z,7.57
2022-10-21T17:17:49.826Z,7.45
2022-10-21T17:20:16.330Z,8.02
2022-10-21T17:22:42.808Z,6.95
2022-10-21T17:25:12.885Z,7.35
2022-10-21T17:27:39.916Z,6.63
2022-10-21T17:30:07.237Z,7.53
2022-10-21T17:32:33.725Z,7.25
2022-10-21T17:35:00.197Z,6.68
2022-10-21T17:37:26.650Z,7.05
2022-10-21T17:39:53.045Z,8.02
2022-10-21T17:42:19.566Z,7.90
2022-10-21T17:44:46.015Z,7.63
2022-10-21T17:47:14.786Z,8.25
2022-10-21T17:49:41.769Z,7.82
2022-10-21T17:52:08.930Z,7.47
2022-10-21T17:54:36.325Z,7.88
2022-10-21T17:57:03.545Z,8.10
2022-10-21T17:59:32.569Z,8.05
2022-10-21T18:01:59.628Z,8.00
2022-10-21T18:04:26.163Z,8.90
2022-10-21T18:06:52.589Z,8.40
2022-10-21T18:09:19.254Z,7.40
2022-10-21T18:11:45.805Z,7.07
2022-10-21T18:14:12.710Z,8.20
2022-10-21T18:16:39.150Z,7.60
2022-10-21T18:19:05.578Z,7.85
2022-10-21T18:21:32.155Z,7.90
2022-10-21T18:23:58.572Z,7.60
2022-10-21T18:26:27.469Z,7.95
2022-10-21T18:28:59.605Z,8.15
2022-10-21T18:31:29.682Z,7.60
2022-10-21T18:33:58.013Z,8.02
2022-10-21T18:36:24.605Z,7.80
2022-10-21T18:38:51.269Z,8.02
2022-10-21T18:41:20.969Z,8.05
2022-10-21T18:43:53.156Z,8.82
2022-10-21T18:46:20.446Z,7.72
2022-10-21T18:48:47.453Z,7.35
2022-10-21T18:51:18.883Z,8.32
2022-10-21T18:53:49.877Z,8.40
2022-10-21T18:56:18.167Z,8.25
2022-10-21T18:58:44.823Z,8.85
2022-10-21T19:01:12.122Z,7.55
2022-10-21T19:03:38.681Z,8.45
2022-10-21T19:06:19.234Z,8.30
2022-10-21T19:08:47.011Z,7.40
2022-10-21T19:11:13.495Z,7.25
2022-10-21T19:13:39.958Z,7.72
2022-10-21T19:16:06.966Z,7.97
2022-10-21T19:18:33.389Z,7.63
2022-10-21T19:20:59.758Z,7.60
2022-10-21T19:23:27.660Z,7.72
2022-10-21T19:25:54.102Z,7.20
2022-10-21T19:28:20.774Z,7.10
2022-10-21T19:30:47.226Z,8.10
2022-10-21T19:33:13.642Z,7.97
2022-10-21T19:35:40.039Z,7.93
2022-10-21T19:38:11.619Z,7.78
2022-10-21T19:40:46.826Z,7.30
2022-10-21T19:43:13.213Z,7.20
2022-10-21T19:45:39.636Z,6.72
2022-10-21T19:48:07.043Z,7.40
2022-10-21T19:50:33.526Z,8.35
2022-10-21T19:52:59.917Z,7.30
2022-10-21T19:55:37.460Z,7.57
2022-10-21T19:58:07.394Z,7.30
2022-10-21T20:00:37.059Z,7.28
2022-10-21T20:03:05.646Z,7.13
2022-10-21T20:05:39.013Z,7.75
2022-10-21T20:08:08.489Z,7.43
2022-10-21T20:10:38.034Z,7.20
2022-10-21T20:13:08.689Z,7.10
2022-10-21T20:15:39.538Z,7.40
2022-10-21T20:18:10.367Z,7.45
2022-10-21T20:20:44.066Z,6.57
2022-10-21T20:23:14.380Z,7.25
2022-10-21T20:26:02.157Z,6.85
2022-10-21T20:28:31.591Z,6.80
2022-10-21T20:31:10.861Z,6.95
2022-10-21T20:33:44.279Z,6.60
2022-10-21T20:36:21.086Z,7.13
2022-10-21T20:38:52.026Z,6.90
2022-10-21T20:41:24.621Z,6.40
2022-10-21T20:43:56.421Z,6.65
2022-10-21T20:46:28.573Z,6.65
2022-10-21T20:48:59.784Z,6.28
2022-10-21T20:51:32.303Z,7.22
2022-10-21T20:54:05.934Z,6.03
2022-10-21T20:56:38.394Z,6.60
2022-10-21T20:59:10.409Z,6.18
2022-10-21T21:01:44.577Z,6.45
2022-10-21T21:04:17.409Z,5.95
2022-10-21T21:06:50.043Z,5.50
2022-10-21T21:09:38.108Z,5.72
2022-10-21T21:12:07.672Z,5.95
2022-10-21T21:14:34.480Z,5.78
2022-10-21T21:17:01.164Z,6.10
2022-10-21T21:19:27.786Z,6.20
2022-10-21T21:21:54.444Z,6.13
2022-10-21T21:24:21.136Z,5.85
2022-10-21T21:26:47.807Z,6.30
2022-10-21T21:29:14.743Z,6.85
2022-10-21T21:31:42.579Z,7.25
2022-10-21T21:34:09.873Z,7.30
2022-10-21T21:36:36.939Z,6.32
2022-10-21T21:39:05.048Z,6.80
2022-10-21T21:41:31.610Z,7.10
2022-10-21T21:43:58.356Z,6.40
2022-10-21T21:46:25.911Z,6.88
2022-10-21T21:48:56.024Z,6.90
2022-10-21T21:51:27.381Z,6.68
2022-10-21T21:53:55.399Z,6.88
2022-10-21T21:56:23.100Z,7.03
2022-10-21T21:58:51.636Z,7.28
2022-10-21T22:01:20.613Z,7.05
2022-10-21T22:03:49.235Z,6.65
2022-10-21T22:06:18.152Z,7.28
2022-10-21T22:08:45.578Z,6.80
2022-10-21T22:11:14.804Z,7.15
2022-10-21T22:13:41.721Z,7.00
2022-10-21T22:16:10.420Z,6.93
2022-10-21T22:18:37.454Z,6.72
2022-10-21T22:21:09.482Z,6.53
2022-10-21T22:23:37.235Z,6.88
2022-10-21T22:26:04.527Z,7.38
2022-10-21T22:28:31.376Z,6.88
2022-10-21T22:31:01.466Z,6.90
2022-10-21T22:33:29.287Z,6.90
2022-10-21T22:35:56.443Z,7.18
2022-10-21T22:38:23.209Z,6.55
2022-10-21T22:40:58.956Z,6.72
2022-10-21T22:43:26.960Z,6.72
2022-10-21T22:46:01.196Z,6.43
2022-10-21T22:48:40.759Z,7.13
2022-10-21T22:51:07.342Z,6.55
2022-10-21T22:53:35.327Z,6.90
2022-10-21T22:56:01.905Z,6.65
2022-10-21T22:58:28.612Z,6.57
2022-10-21T23:03:26.724Z,7.20
2022-10-21T23:05:53.152Z,7.50
2022-10-21T23:08:20.437Z,6.50
2022-10-21T23:10:48.875Z,7.18
2022-10-21T23:13:15.446Z,6.93
2022-10-21T23:15:42.006Z,6.25
2022-10-21T23:18:08.643Z,6.60
2022-10-21T23:20:35.260Z,6.95
2022-10-21T23:23:01.818Z,6.57
2022-10-21T23:25:28.521Z,6.78
2022-10-21T23:27:55.331Z,6.68
2022-10-21T23:30:23.758Z,6.28
2022-10-21T23:32:50.451Z,6.40
2022-10-21T23:35:17.718Z,6.10
2022-10-21T23:37:44.469Z,5.93
2022-10-21T23:40:12.269Z,6.03
2022-10-21T23:42:42.725Z,5.95
2022-10-21T23:45:11.086Z,6.57
2022-10-21T23:47:39.120Z,5.70
2022-10-21T23:50:07.267Z,6.00
2022-10-21T23:52:33.736Z,6.30
2022-10-21T23:55:00.231Z,6.22
2022-10-21T23:57:26.859Z,6.10
2022-10-21T23:59:53.422Z,6.50
